Time;durP1;ratioP1;P1;durP2;ratioP2;P2;SDS_P1;SDS_P2;PMS_P1;PMS_P2;Temp;Humidity;BMP_temperature;BMP_pressure;BME280_temperature;BME280_humidity;BME280_pressure;Samples;Min_cycle;Max_cycle;Signal;HPM_P1;HPM_P2
2024/01/29 00:01:23;;;;;;;4.37;4.27;;;;;;;8.77;49.99;102195.19;4958641;28;20222;-72
2024/01/29 00:03:50;;;;;;;5.10;4.83;;;;;;;8.77;49.45;102195.19;4958822;28;20202;-72
2024/01/29 00:06:16;;;;;;;4.83;4.73;;;;;;;8.78;49.34;102194.22;4959057;28;20197;-72
2024/01/29 00:08:43;;;;;;;5.70;4.73;;;;;;;8.77;49.57;102193.38;4959008;28;20214;-72
2024/01/29 00:11:09;;;;;;;4.43;4.33;;;;;;;8.83;48.93;102184.94;4959176;28;20543;-72
2024/01/29 00:13:36;;;;;;;4.90;4.80;;;;;;;8.81;49.45;102188.69;4958382;29;20281;-72
2024/01/29 00:16:03;;;;;;;4.50;4.40;;;;;;;8.80;49.28;102190.50;4958359;28;20197;-72
2024/01/29 00:18:30;;;;;;;4.63;4.37;;;;;;;8.71;50.06;102186.63;4958783;28;20214;-72
2024/01/29 00:20:57;;;;;;;5.50;5.40;;;;;;;8.64;50.10;102184.50;4958292;28;20209;-72
2024/01/29 00:23:24;;;;;;;4.23;4.13;;;;;;;8.57;50.24;102185.88;4958119;28;20206;-72
2024/01/29 00:25:50;;;;;;;4.30;4.20;;;;;;;8.56;50.07;102181.50;4958180;28;20197;-72
2024/01/29 00:28:17;;;;;;;4.53;4.33;;;;;;;8.64;49.75;102179.16;4958078;28;20210;-72
2024/01/29 00:30:43;;;;;;;4.70;4.63;;;;;;;8.63;49.58;102180.97;4958596;28;20250;-71
2024/01/29 00:33:10;;;;;;;5.10;5.00;;;;;;;8.74;49.47;102185.59;4958333;28;20187;-72
2024/01/29 00:35:37;;;;;;;4.97;4.87;;;;;;;8.83;49.02;102181.41;4958049;28;20682;-72
2024/01/29 00:38:03;;;;;;;4.70;4.60;;;;;;;8.93;48.19;102180.69;4958002;28;20219;-72
2024/01/29 00:40:32;;;;;;;4.90;4.73;;;;;;;9.04;48.52;102180.78;4957961;28;20187;-72
2024/01/29 00:43:00;;;;;;;4.83;4.73;;;;;;;9.14;47.85;102181.88;4957266;28;20195;-72
2024/01/29 00:45:27;;;;;;;4.73;4.33;;;;;;;9.14;48.17;102181.88;4957831;28;20681;-72
2024/01/29 00:47:53;;;;;;;4.07;3.97;;;;;;;9.35;46.79;102181.31;4957712;28;20214;-72
2024/01/29 00:50:20;;;;;;;3.97;3.97;;;;;;;9.31;47.15;102188.69;4957919;28;20678;-72
2024/01/29 00:52:46;;;;;;;4.30;4.20;;;;;;;9.42;46.57;102198.63;4957999;28;20226;-72
2024/01/29 00:55:13;;;;;;;4.03;3.93;;;;;;;9.40;46.85;102192.53;4957925;28;20190;-72
2024/01/29 00:57:39;;;;;;;3.60;3.50;;;;;;;9.31;47.27;102190.50;4957786;28;20218;-72
2024/01/29 01:00:06;;;;;;;4.07;3.87;;;;;;;9.21;47.60;102186.81;4957826;28;20195;-72
2024/01/29 01:02:33;;;;;;;4.20;4.10;;;;;;;9.13;47.48;102185.50;4957794;28;20190;-72
2024/01/29 01:04:59;;;;;;;3.37;3.37;;;;;;;9.04;48.08;102188.81;4957493;28;20193;-72
2024/01/29 01:07:27;;;;;;;3.43;3.43;;;;;;;9.05;48.09;102187.84;4957400;28;20222;-72
2024/01/29 01:09:53;;;;;;;4.20;4.07;;;;;;;9.01;48.17;102186.34;4956076;29;20200;-72
2024/01/29 01:12:20;;;;;;;3.53;3.43;;;;;;;8.97;48.26;102190.19;4957362;28;20194;-72
2024/01/29 01:14:46;;;;;;;4.07;4.07;;;;;;;8.94;48.11;102185.06;4958061;28;20707;-72
2024/01/29 01:17:13;;;;;;;3.73;3.73;;;;;;;8.95;48.66;102185.94;4957203;28;20218;-72
2024/01/29 01:19:40;;;;;;;3.77;3.77;;;;;;;8.96;47.97;102188.47;4957230;28;20658;-72
2024/01/29 01:22:06;;;;;;;4.13;3.70;;;;;;;8.93;48.37;102194.03;4957179;28;20213;-72
2024/01/29 01:24:33;;;;;;;3.63;3.63;;;;;;;8.92;48.35;102188.78;4957257;28;20671;-72
2024/01/29 01:26:59;;;;;;;3.80;3.37;;;;;;;8.83;48.65;102190.28;4957509;28;20214;-72
2024/01/29 01:29:26;;;;;;;3.53;3.40;;;;;;;8.75;48.85;102194.41;4957320;28;20198;-72
2024/01/29 01:31:52;;;;;;;3.10;3.00;;;;;;;8.68;49.08;102202.84;4956986;28;20206;-72
2024/01/29 01:34:18;;;;;;;5.10;3.70;;;;;;;8.65;49.24;102195.06;4957287;28;20604;-72
2024/01/29 01:36:45;;;;;;;3.70;3.57;;;;;;;8.58;49.20;102196.41;4956897;28;20183;-72
2024/01/29 01:39:12;;;;;;;4.10;4.00;;;;;;;8.44;50.09;102198.31;4956896;28;20538;-72
2024/01/29 01:41:39;;;;;;;3.43;3.43;;;;;;;8.25;50.63;102211.94;4956863;28;20191;-72
2024/01/29 01:44:05;;;;;;;3.57;3.53;;;;;;;8.10;51.33;102210.28;4957046;28;20199;-72
2024/01/29 01:46:32;;;;;;;3.50;3.40;;;;;;;7.99;51.24;102218.97;4956744;28;20238;-72
2024/01/29 01:48:58;;;;;;;4.37;4.17;;;;;;;7.86;52.04;102220.69;4956608;28;20218;-72
2024/01/29 01:51:25;;;;;;;4.40;4.40;;;;;;;7.73;51.95;102211.78;4956552;28;20202;-72
2024/01/29 01:53:54;;;;;;;4.70;4.60;;;;;;;7.76;51.94;102222.25;4956562;28;20190;-72
2024/01/29 01:56:21;;;;;;;5.17;5.03;;;;;;;7.76;51.96;102222.25;4957112;28;20678;-72
2024/01/29 01:58:48;;;;;;;5.03;4.93;;;;;;;7.82;51.11;102227.16;4956441;28;20242;-72
2024/01/29 02:01:14;;;;;;;4.80;4.70;;;;;;;7.86;51.14;102227.81;4957016;28;20187;-72
2024/01/29 02:03:42;;;;;;;4.60;4.43;;;;;;;7.91;50.97;102221.25;4956955;28;20669;-72
2024/01/29 02:06:10;;;;;;;6.10;4.40;;;;;;;7.94;50.78;102215.72;4956622;28;20257;-72
2024/01/29 02:08:37;;;;;;;5.17;4.70;;;;;;;7.91;50.98;102220.41;4956288;28;20210;-72
2024/01/29 02:11:04;;;;;;;5.23;4.73;;;;;;;7.87;51.44;102226.88;4956482;28;20640;-72
2024/01/29 02:13:31;;;;;;;4.90;4.80;;;;;;;7.78;51.75;102218.53;4956221;28;20281;-72
2024/01/29 02:15:58;;;;;;;5.10;4.90;;;;;;;7.67;52.05;102222.81;4956180;28;20190;-72
2024/01/29 02:18:25;;;;;;;4.20;4.10;;;;;;;7.58;51.95;102228.72;4956079;28;20206;-71
2024/01/29 02:20:51;;;;;;;4.83;4.73;;;;;;;7.47;53.22;102228.53;4956113;28;20190;-71
2024/01/29 02:23:18;;;;;;;4.23;4.20;;;;;;;7.47;53.62;102224.03;4955878;28;20202;-72
2024/01/29 02:25:44;;;;;;;4.87;4.43;;;;;;;7.44;53.23;102226.91;4955998;28;20195;-72
2024/01/29 02:28:10;;;;;;;4.53;4.33;;;;;;;7.43;53.28;102221.66;4955913;28;20214;-71
2024/01/29 02:30:37;;;;;;;4.27;3.97;;;;;;;7.44;53.26;102221.59;4956116;28;20218;-71
2024/01/29 02:33:04;;;;;;;4.73;4.73;;;;;;;7.29;53.98;102217.22;4956409;28;20192;-71
2024/01/29 02:35:31;;;;;;;6.57;4.90;;;;;;;7.12;54.25;102218.25;4956140;28;20713;-72
2024/01/29 02:37:57;;;;;;;4.43;4.13;;;;;;;7.13;53.93;102219.94;4956336;28;20213;-72
2024/01/29 02:40:23;;;;;;;4.63;4.43;;;;;;;7.18;54.30;102220.53;4956033;28;20193;-72
2024/01/29 02:42:50;;;;;;;4.00;3.90;;;;;;;7.30;53.67;102218.91;4956050;28;20222;-72
2024/01/29 02:45:16;;;;;;;4.67;4.47;;;;;;;7.35;53.78;102220.34;4955971;28;20182;-72
2024/01/29 02:47:43;;;;;;;4.20;4.00;;;;;;;7.57;52.94;102219.88;4955591;28;20210;-72
2024/01/29 02:50:09;;;;;;;4.13;4.03;;;;;;;7.53;53.24;102228.16;4956287;28;20194;-72
2024/01/29 02:52:36;;;;;;;4.30;4.20;;;;;;;7.51;53.47;102222.06;4955732;28;20678;-72
2024/01/29 02:55:03;;;;;;;4.43;4.30;;;;;;;7.51;53.28;102222.06;4956104;28;20602;-72
2024/01/29 02:57:30;;;;;;;4.33;4.23;;;;;;;7.49;53.59;102221.31;4955643;28;20214;-72
2024/01/29 02:59:56;;;;;;;4.90;4.80;;;;;;;7.47;53.96;102231.19;4955937;28;20198;-72
2024/01/29 03:02:23;;;;;;;3.90;3.70;;;;;;;7.51;53.41;102219.41;4955707;28;20187;-72
2024/01/29 03:04:49;;;;;;;4.87;4.57;;;;;;;7.59;53.49;102231.28;4955554;28;20232;-72
2024/01/29 03:07:16;;;;;;;4.53;4.27;;;;;;;7.56;53.52;102231.47;4955284;28;20217;-72
2024/01/29 03:09:42;;;;;;;4.60;4.40;;;;;;;7.51;53.98;102222.91;4955630;28;20231;-72
2024/01/29 03:12:09;;;;;;;4.20;4.10;;;;;;;7.43;54.55;102227.00;4955240;28;20265;-72
2024/01/29 03:14:35;;;;;;;5.17;4.73;;;;;;;7.25;55.70;102231.66;4955262;28;20241;-72
2024/01/29 03:17:02;;;;;;;4.97;4.67;;;;;;;7.14;55.84;102229.63;4955443;28;20224;-72
2024/01/29 03:19:28;;;;;;;4.03;4.03;;;;;;;7.09;55.54;102222.88;4955256;28;20250;-72
2024/01/29 03:21:55;;;;;;;5.53;5.00;;;;;;;6.98;55.76;102228.00;4955224;28;20242;-72
2024/01/29 03:24:22;;;;;;;4.37;4.27;;;;;;;6.74;57.21;102230.31;4955121;29;20203;-72
2024/01/29 03:26:48;;;;;;;4.30;4.20;;;;;;;6.70;57.02;102228.78;4955154;28;20191;-72
2024/01/29 03:29:14;;;;;;;4.40;4.13;;;;;;;6.58;58.09;102225.03;4955703;28;20245;-72
2024/01/29 03:31:41;;;;;;;5.03;4.93;;;;;;;6.47;58.28;102216.84;4955056;28;20211;-72
2024/01/29 03:34:08;;;;;;;4.53;4.43;;;;;;;6.42;58.53;102217.09;4955111;28;20265;-72
2024/01/29 03:36:34;;;;;;;4.37;3.93;;;;;;;6.39;58.60;102219.94;4954992;28;20187;-71
2024/01/29 03:39:01;;;;;;;6.43;5.43;;;;;;;6.36;59.39;102224.56;4955601;28;20682;-71
2024/01/29 03:41:27;;;;;;;5.10;4.90;;;;;;;6.24;59.73;102220.78;4955356;28;20230;-72
2024/01/29 03:43:54;;;;;;;5.17;4.90;;;;;;;6.15;59.91;102220.50;4955032;28;20186;-72
2024/01/29 03:46:21;;;;;;;13.67;5.23;;;;;;;5.97;60.80;102217.06;4955007;28;20183;-71
2024/01/29 03:48:47;;;;;;;4.77;4.57;;;;;;;5.94;60.76;102222.56;4955430;28;20215;-71
2024/01/29 03:51:14;;;;;;;9.73;4.33;;;;;;;5.84;61.03;102221.31;4954924;28;20210;-72
2024/01/29 03:53:40;;;;;;;6.73;5.23;;;;;;;5.72;62.48;102222.84;4955451;28;20703;-72
2024/01/29 03:56:06;;;;;;;4.87;4.50;;;;;;;5.65;62.59;102225.88;4955429;28;20206;-72
2024/01/29 03:58:33;;;;;;;5.23;5.03;;;;;;;5.60;62.65;102225.31;4954797;28;20206;-72
2024/01/29 04:00:59;;;;;;;4.93;4.53;;;;;;;5.53;62.52;102230.06;4955376;28;20273;-72
2024/01/29 04:03:26;;;;;;;4.47;4.13;;;;;;;5.42;62.74;102229.81;4955090;28;20227;-72
2024/01/29 04:05:53;;;;;;;4.80;4.50;;;;;;;5.33;63.72;102220.53;4955328;28;20191;-72
2024/01/29 04:08:21;;;;;;;4.53;4.43;;;;;;;5.21;63.68;102220.31;4954999;28;20226;-72
2024/01/29 04:10:47;;;;;;;3.43;3.33;;;;;;;5.14;64.25;102221.56;4954709;28;20195;-72
2024/01/29 04:13:14;;;;;;;4.67;4.57;;;;;;;5.01;65.14;102226.66;4955026;28;20196;-72
2024/01/29 04:15:40;;;;;;;5.40;3.90;;;;;;;4.97;64.68;102225.94;4954732;28;20199;-72
2024/01/29 04:18:07;;;;;;;5.20;4.80;;;;;;;4.88;65.30;102218.47;4955858;29;20313;-72
2024/01/29 04:20:33;;;;;;;5.23;5.13;;;;;;;4.84;65.64;102231.94;4958283;28;20200;-72
2024/01/29 04:23:00;;;;;;;6.90;5.57;;;;;;;4.80;66.95;102228.59;4958116;28;20187;-72
2024/01/29 04:25:26;;;;;;;8.70;5.50;;;;;;;4.80;66.33;102225.09;4958792;28;20631;-72
2024/01/29 04:27:52;;;;;;;10.10;5.37;;;;;;;4.80;66.12;102227.75;4958220;28;20214;-71
2024/01/29 04:30:19;;;;;;;5.83;5.43;;;;;;;4.86;66.29;102232.75;4958113;28;20191;-71
2024/01/29 04:32:46;;;;;;;6.40;5.87;;;;;;;4.86;66.36;102233.59;4958552;29;20246;-71
2024/01/29 04:35:12;;;;;;;5.80;5.37;;;;;;;4.88;66.42;102233.53;4958326;28;20191;-72
2024/01/29 04:37:40;;;;;;;6.00;5.70;;;;;;;4.81;65.98;102234.78;4957941;28;20214;-72
2024/01/29 04:40:07;;;;;;;6.83;6.20;;;;;;;4.77;66.96;102231.44;4957949;28;20207;-72
2024/01/29 04:42:34;;;;;;;5.70;5.47;;;;;;;4.78;66.63;102238.44;4958383;28;20191;-72
2024/01/29 04:45:00;;;;;;;6.73;6.33;;;;;;;4.78;66.43;102233.16;4958377;28;20669;-72
2024/01/29 04:47:27;;;;;;;6.30;5.90;;;;;;;4.82;66.15;102234.69;4958128;28;20706;-72
2024/01/29 04:49:54;;;;;;;7.27;6.53;;;;;;;4.78;66.78;102237.59;4957743;28;20202;-72
2024/01/29 04:52:20;;;;;;;7.13;6.57;;;;;;;4.83;66.37;102238.22;4957950;28;20610;-72
2024/01/29 04:54:47;;;;;;;14.13;6.27;;;;;;;4.68;66.63;102244.25;4957679;28;20273;-72
2024/01/29 04:57:13;;;;;;;7.47;6.77;;;;;;;4.61;67.41;102246.38;4957799;28;20277;-71
2024/01/29 04:59:40;;;;;;;8.50;7.47;;;;;;;4.56;68.07;102243.94;4958100;28;20218;-72
2024/01/29 05:02:06;;;;;;;6.90;6.43;;;;;;;4.58;67.65;102236.78;4958103;28;20190;-72
2024/01/29 05:04:33;;;;;;;8.23;6.73;;;;;;;4.53;67.44;102233.53;4957532;28;20186;-72
2024/01/29 05:07:00;;;;;;;7.27;6.17;;;;;;;4.45;67.60;102241.00;4957401;28;20230;-71
2024/01/29 05:09:27;;;;;;;7.40;6.30;;;;;;;4.37;67.77;102239.66;4957682;28;20201;-70
2024/01/29 05:11:53;;;;;;;9.97;8.87;;;;;;;4.27;68.25;102239.22;4957289;28;20581;-70
2024/01/29 05:14:20;;;;;;;13.80;9.17;;;;;;;4.20;68.10;102237.78;4957840;28;20249;-69
2024/01/29 05:16:46;;;;;;;7.93;6.67;;;;;;;4.08;68.50;102244.53;4957260;28;20193;-69
2024/01/29 05:19:13;;;;;;;9.90;6.27;;;;;;;3.96;68.75;102238.97;4957609;28;20237;-70
2024/01/29 05:21:39;;;;;;;6.90;6.40;;;;;;;3.83;69.37;102241.34;4957271;28;20187;-70
2024/01/29 05:24:06;;;;;;;7.03;6.47;;;;;;;3.77;70.14;102246.94;4957202;28;20195;-70
2024/01/29 05:26:32;;;;;;;10.47;7.00;;;;;;;3.75;70.31;102251.41;4957123;28;20194;-70
2024/01/29 05:28:59;;;;;;;8.20;7.60;;;;;;;3.73;70.13;102249.78;4956687;28;20257;-69
2024/01/29 05:31:25;;;;;;;10.50;8.20;;;;;;;3.67;70.71;102251.78;4956901;28;20705;-69
2024/01/29 05:33:52;;;;;;;10.17;7.30;;;;;;;3.63;70.36;102252.84;4957039;28;20535;-70
2024/01/29 05:36:18;;;;;;;15.33;8.03;;;;;;;3.59;70.76;102248.63;4957241;28;20182;-71
2024/01/29 05:38:44;;;;;;;8.07;7.33;;;;;;;3.55;70.55;102254.13;4956821;28;20264;-69
2024/01/29 05:41:11;;;;;;;11.57;7.63;;;;;;;3.47;71.37;102249.19;4957138;28;20179;-69
2024/01/29 05:43:37;;;;;;;23.57;9.10;;;;;;;3.45;72.35;102253.66;4956790;28;20744;-69
2024/01/29 05:46:04;;;;;;;20.30;10.77;;;;;;;3.41;71.66;102265.31;4957341;28;20637;-69
2024/01/29 05:48:30;;;;;;;13.13;8.50;;;;;;;3.41;71.28;102254.72;4956953;28;20214;-69
2024/01/29 05:50:57;;;;;;;9.17;7.57;;;;;;;3.38;72.07;102261.94;4956898;28;20191;-69
2024/01/29 05:53:24;;;;;;;7.93;7.20;;;;;;;3.34;72.80;102258.59;4956393;28;20242;-69
2024/01/29 05:55:50;;;;;;;8.43;7.57;;;;;;;3.36;72.18;102255.84;4956604;28;20552;-69
2024/01/29 05:58:17;;;;;;;6.80;6.20;;;;;;;3.32;72.23;102255.13;4956464;28;20206;-70
2024/01/29 06:00:44;;;;;;;6.10;5.73;;;;;;;3.28;72.42;102253.56;4956464;28;20205;-70
2024/01/29 06:03:12;;;;;;;7.17;6.60;;;;;;;3.19;73.14;102248.66;4956405;28;20188;-70
2024/01/29 06:05:38;;;;;;;9.17;6.83;;;;;;;3.18;73.32;102255.72;4956709;28;20197;-73
2024/01/29 06:08:05;;;;;;;14.23;6.37;;;;;;;3.17;73.84;102259.31;4956412;28;20220;-70
2024/01/29 06:10:31;;;;;;;16.13;6.60;;;;;;;3.16;74.41;102267.31;4956252;28;20202;-70
2024/01/29 06:12:58;;;;;;;6.73;6.07;;;;;;;3.21;74.38;102267.97;4956441;28;20209;-70
2024/01/29 06:15:24;;;;;;;14.27;6.57;;;;;;;3.21;74.61;102262.69;4956239;28;20284;-70
2024/01/29 06:17:51;;;;;;;9.73;7.40;;;;;;;3.25;75.14;102269.56;4956275;28;20217;-69
2024/01/29 06:20:17;;;;;;;6.90;6.50;;;;;;;3.32;74.33;102262.19;4956343;28;20201;-69
2024/01/29 06:22:46;;;;;;;6.67;6.20;;;;;;;3.23;74.49;102269.59;4955921;28;20228;-69
2024/01/29 06:25:12;;;;;;;9.20;6.93;;;;;;;3.22;74.53;102270.53;4956284;28;20190;-69
2024/01/29 06:27:40;;;;;;;6.77;6.47;;;;;;;3.22;74.41;102274.97;4955897;28;20296;-69
2024/01/29 06:30:07;;;;;;;8.20;7.70;;;;;;;3.20;74.77;102280.31;4955930;28;20276;-69
2024/01/29 06:32:34;;;;;;;12.13;7.00;;;;;;;3.17;74.85;102279.59;4955338;28;20221;-69
2024/01/29 06:35:00;;;;;;;10.07;7.23;;;;;;;3.15;74.27;102279.66;4956356;28;20276;-69
2024/01/29 06:37:27;;;;;;;12.23;8.13;;;;;;;3.08;74.88;102280.84;4955767;28;20215;-69
2024/01/29 06:39:53;;;;;;;25.90;7.93;;;;;;;3.02;75.74;102285.53;4955611;28;20190;-69
2024/01/29 06:42:20;;;;;;;13.80;8.00;;;;;;;2.95;76.54;102295.50;4955940;28;20612;-69
2024/01/29 06:44:46;;;;;;;27.50;9.37;;;;;;;2.97;76.71;102298.94;4955689;28;20202;-69
2024/01/29 06:47:17;;;;;;;21.43;7.50;;;;;;;2.98;76.32;102291.88;4955760;28;20213;-69
2024/01/29 06:49:43;;;;;;;8.53;7.73;;;;;;;2.98;75.94;102294.50;4955572;28;20237;-69
2024/01/29 06:52:10;;;;;;;12.90;7.00;;;;;;;2.97;76.07;102296.28;4955429;28;20304;-69
2024/01/29 06:54:42;;;;;;;10.23;8.10;;;;;;;2.96;76.10;102301.66;4955838;28;20225;-70
2024/01/29 06:57:08;;;;;;;20.30;7.37;;;;;;;2.97;76.24;102298.94;4955441;28;20217;-70
2024/01/29 06:59:35;;;;;;;8.43;7.60;;;;;;;2.97;75.84;102284.88;4955897;28;20196;-70
2024/01/29 07:02:04;;;;;;;9.67;8.63;;;;;;;2.98;76.05;102283.94;4955901;28;20244;-70
2024/01/29 07:04:30;;;;;;;9.80;7.97;;;;;;;2.95;76.60;102294.66;4955392;28;20194;-70
2024/01/29 07:06:57;;;;;;;11.43;8.20;;;;;;;2.97;76.17;102292.81;4955274;28;20216;-69
2024/01/29 07:09:23;;;;;;;9.97;8.63;;;;;;;2.98;76.30;102298.00;4955382;28;20560;-69
2024/01/29 07:11:52;;;;;;;25.90;9.80;;;;;;;3.01;76.91;102291.75;4955168;28;20216;-69
2024/01/29 07:14:18;;;;;;;15.47;8.00;;;;;;;3.07;76.08;102294.13;4955308;28;20192;-69
2024/01/29 07:16:45;;;;;;;28.20;8.73;;;;;;;3.08;76.06;102298.50;4955183;28;20561;-69
2024/01/29 07:19:11;;;;;;;15.87;8.83;;;;;;;2.99;76.36;102298.88;4955219;28;20197;-69
2024/01/29 07:21:38;;;;;;;9.13;8.17;;;;;;;2.95;76.34;102297.28;4955432;28;20670;-69
2024/01/29 07:24:05;;;;;;;21.10;7.73;;;;;;;2.87;77.12;102305.53;4955144;28;20203;-69
2024/01/29 07:26:32;;;;;;;12.80;7.90;;;;;;;2.81;77.03;102302.28;4955380;28;20192;-69
2024/01/29 07:28:59;;;;;;;11.00;7.47;;;;;;;2.80;77.07;102314.63;4955159;28;20214;-70
2024/01/29 07:31:27;;;;;;;12.40;7.73;;;;;;;2.79;76.95;102317.34;4955824;28;20572;-70
2024/01/29 07:33:54;;;;;;;9.03;8.00;;;;;;;2.79;77.34;102327.91;4955269;28;20768;-70
2024/01/29 07:36:22;;;;;;;12.00;7.57;;;;;;;2.82;78.01;102326.00;4954927;28;20229;-70
2024/01/29 07:38:49;;;;;;;13.73;8.77;;;;;;;2.81;77.62;102318.97;4955408;28;20689;-69
2024/01/29 07:41:15;;;;;;;10.27;8.27;;;;;;;2.84;78.03;102320.66;4954813;28;20195;-69
2024/01/29 07:43:42;;;;;;;9.47;7.77;;;;;;;2.93;77.57;102322.94;4955199;28;20196;-69
2024/01/29 07:46:10;;;;;;;8.53;7.60;;;;;;;2.86;78.11;102327.59;4954941;28;20200;-69
2024/01/29 07:48:36;;;;;;;11.37;9.57;;;;;;;2.93;78.31;102330.84;4954868;28;20217;-70
2024/01/29 07:51:03;;;;;;;9.73;8.47;;;;;;;2.90;78.44;102330.94;4956110;28;20268;-69
2024/01/29 07:53:29;;;;;;;8.77;7.87;;;;;;;3.01;77.52;102326.94;4958993;28;20207;-69
2024/01/29 07:55:56;;;;;;;9.03;8.13;;;;;;;2.89;77.84;102326.59;4958721;28;20201;-69
2024/01/29 07:58:23;;;;;;;11.07;8.17;;;;;;;2.89;78.48;102330.09;4958828;28;20217;-69
2024/01/29 08:00:50;;;;;;;20.33;8.27;;;;;;;2.93;78.46;102331.69;4958556;28;20283;-69
2024/01/29 08:03:16;;;;;;;9.60;7.80;;;;;;;2.94;78.34;102325.47;4958619;28;20194;-69
2024/01/29 08:05:43;;;;;;;13.27;8.43;;;;;;;2.99;78.96;102317.38;4958806;28;20189;-70
2024/01/29 08:08:10;;;;;;;12.83;8.60;;;;;;;3.04;78.52;102320.69;4958520;28;20232;-69
2024/01/29 08:10:37;;;;;;;22.67;8.00;;;;;;;3.10;79.60;102320.41;4958490;28;20225;-69
2024/01/29 08:13:04;;;;;;;16.83;8.67;;;;;;;3.23;79.41;102325.09;4958939;28;20214;-70
2024/01/29 08:15:30;;;;;;;8.50;7.87;;;;;;;3.32;78.70;102317.72;4958373;28;20245;-70
2024/01/29 08:17:57;;;;;;;9.70;8.73;;;;;;;3.47;78.90;102314.41;4958303;28;20225;-69
2024/01/29 08:20:24;;;;;;;14.33;9.00;;;;;;;3.67;78.42;102317.03;4958816;28;20200;-69
2024/01/29 08:22:52;;;;;;;14.37;8.70;;;;;;;3.84;78.45;102322.41;4958114;28;20193;-69
2024/01/29 08:25:20;;;;;;;15.90;9.17;;;;;;;4.03;77.92;102317.16;4958688;28;20237;-70
2024/01/29 08:27:46;;;;;;;10.90;9.53;;;;;;;4.24;78.05;102318.81;4958461;28;20220;-69
2024/01/29 08:30:13;;;;;;;11.93;10.17;;;;;;;4.52;77.45;102305.09;4958404;28;20196;-69
2024/01/29 08:32:41;;;;;;;19.00;10.10;;;;;;;4.69;77.16;102306.91;4958203;29;20241;-69
2024/01/29 08:35:09;;;;;;;11.40;9.23;;;;;;;4.86;76.28;102309.59;4957925;29;20210;-69
2024/01/29 08:37:35;;;;;;;15.27;9.73;;;;;;;5.05;76.44;102310.38;4957866;28;20202;-70
2024/01/29 08:40:02;;;;;;;22.93;10.80;;;;;;;5.35;74.92;102324.72;4958277;28;20283;-70
2024/01/29 08:42:29;;;;;;;11.23;10.17;;;;;;;5.49;74.77;102324.00;4958187;28;20215;-70
2024/01/29 08:44:56;;;;;;;11.67;9.33;;;;;;;5.79;73.39;102324.19;4958346;29;20767;-70
2024/01/29 08:47:23;;;;;;;10.70;9.70;;;;;;;6.06;73.07;102329.84;4957745;28;20214;-70
2024/01/29 08:49:50;;;;;;;9.57;8.73;;;;;;;6.23;72.29;102324.47;4957785;28;20600;-70
2024/01/29 08:52:17;;;;;;;8.83;8.20;;;;;;;6.49;71.83;102325.69;4957657;28;20327;-70
2024/01/29 08:54:44;;;;;;;8.53;7.70;;;;;;;6.73;70.96;102325.13;4957667;28;20265;-70
2024/01/29 08:57:11;;;;;;;8.53;7.77;;;;;;;6.93;69.84;102329.28;4958141;28;20293;-70
2024/01/29 08:59:38;;;;;;;9.13;7.43;;;;;;;7.15;68.87;102337.75;4957852;28;20191;-70
2024/01/29 09:02:05;;;;;;;7.40;7.10;;;;;;;7.30;67.63;102336.81;4957751;28;20606;-72
2024/01/29 09:04:31;;;;;;;7.80;7.50;;;;;;;7.47;67.53;102334.97;4957044;28;20721;-72
2024/01/29 09:06:58;;;;;;;8.37;7.77;;;;;;;7.59;67.42;102334.22;4957670;28;20210;-72
2024/01/29 09:09:25;;;;;;;7.27;6.70;;;;;;;7.71;67.00;102338.81;4957474;29;20225;-72
2024/01/29 09:11:51;;;;;;;6.93;6.47;;;;;;;7.79;66.92;102340.03;4957451;28;20617;-72
2024/01/29 09:14:20;;;;;;;8.53;7.07;;;;;;;7.99;66.11;102343.28;4957359;28;20198;-72
2024/01/29 09:16:46;;;;;;;8.07;7.43;;;;;;;8.17;65.66;102343.00;4958030;28;20190;-72
2024/01/29 09:19:14;;;;;;;8.27;7.57;;;;;;;8.29;65.87;102333.38;4957286;28;20198;-72
2024/01/29 09:21:47;;;;;;;8.63;7.93;;;;;;;8.66;64.26;102339.84;4957738;28;20527;-72
2024/01/29 09:24:13;;;;;;;8.90;8.00;;;;;;;8.78;63.83;102346.22;4956011;29;20207;-73
2024/01/29 09:26:40;;;;;;;11.07;8.00;;;;;;;8.79;64.32;102347.91;4957329;28;20199;-72
2024/01/29 09:29:06;;;;;;;7.93;7.17;;;;;;;8.87;64.20;102353.63;4957378;28;20195;-72
2024/01/29 09:31:33;;;;;;;8.43;6.93;;;;;;;9.06;63.63;102351.44;4957307;28;20190;-72
2024/01/29 09:33:59;;;;;;;7.83;7.20;;;;;;;8.95;64.38;102341.50;4956974;28;20225;-72
2024/01/29 09:36:26;;;;;;;8.43;7.23;;;;;;;9.00;63.63;102342.03;4957499;28;20245;-73
2024/01/29 09:38:55;;;;;;;7.20;6.80;;;;;;;9.02;63.04;102340.13;4957112;28;20624;-74
2024/01/29 09:41:21;;;;;;;6.77;6.47;;;;;;;9.16;62.41;102334.69;4957165;28;20190;-73
2024/01/29 09:43:48;;;;;;;6.67;6.27;;;;;;;9.26;62.43;102336.75;4957082;28;20723;-73
2024/01/29 09:46:16;;;;;;;6.93;6.53;;;;;;;9.44;61.47;102343.50;4957110;28;20199;-73
2024/01/29 09:48:44;;;;;;;8.17;7.30;;;;;;;9.55;60.71;102354.31;4956723;28;20221;-72
2024/01/29 09:51:13;;;;;;;10.47;7.70;;;;;;;9.58;60.19;102356.78;4957211;28;20187;-72
2024/01/29 09:53:39;;;;;;;8.17;7.37;;;;;;;9.80;60.79;102359.66;4957256;28;20562;-72
2024/01/29 09:56:06;;;;;;;11.77;7.37;;;;;;;9.78;60.22;102347.38;4955481;29;20536;-72
2024/01/29 09:58:32;;;;;;;7.07;6.67;;;;;;;9.88;59.93;102349.31;4956750;28;20210;-72
2024/01/29 10:01:03;;;;;;;6.97;6.57;;;;;;;9.95;60.53;102350.59;4956523;28;20194;-73
2024/01/29 10:03:31;;;;;;;7.47;6.83;;;;;;;10.05;59.66;102354.34;4956989;28;20234;-73
2024/01/29 10:05:58;;;;;;;7.47;6.90;;;;;;;10.22;59.52;102355.84;4956414;28;20667;-73
2024/01/29 10:08:25;;;;;;;6.80;6.43;;;;;;;10.30;59.33;102352.59;4956282;28;20238;-73
2024/01/29 10:10:54;;;;;;;9.97;6.83;;;;;;;10.28;59.48;102349.16;4956313;28;20201;-73
2024/01/29 10:13:21;;;;;;;7.40;6.80;;;;;;;10.35;58.91;102350.47;4956140;28;20221;-73
2024/01/29 10:15:49;;;;;;;6.67;6.37;;;;;;;10.42;58.77;102346.38;4955499;28;20607;-73
2024/01/29 10:18:16;;;;;;;7.87;7.27;;;;;;;10.36;58.87;102360.16;4956094;28;20209;-73
2024/01/29 10:20:43;;;;;;;7.23;6.73;;;;;;;10.49;59.01;102366.34;4956672;28;20673;-73
2024/01/29 10:23:09;;;;;;;8.93;6.73;;;;;;;10.55;58.80;102360.56;4956209;28;20273;-73
2024/01/29 10:25:38;;;;;;;7.10;6.70;;;;;;;10.68;58.42;102357.84;4956101;28;20190;-73
2024/01/29 10:28:12;;;;;;;9.33;8.27;;;;;;;10.73;59.03;102361.91;4955955;28;20214;-70
2024/01/29 10:30:40;;;;;;;7.03;6.63;;;;;;;10.88;58.05;102359.91;4956216;28;20186;-70
2024/01/29 10:33:07;;;;;;;7.77;7.20;;;;;;;10.98;57.29;102361.78;4956124;28;20274;-70
2024/01/29 10:35:35;;;;;;;8.00;7.50;;;;;;;11.13;57.91;102364.28;4955852;28;20202;-71
2024/01/29 10:38:04;;;;;;;14.77;8.53;;;;;;;11.27;56.81;102362.28;4955975;28;20210;-70
2024/01/29 10:40:33;;;;;;;7.03;6.47;;;;;;;11.29;57.02;102367.50;4955786;28;20538;-70
2024/01/29 10:43:01;;;;;;;7.40;7.00;;;;;;;11.40;56.29;102365.72;4956306;28;20713;-70
2024/01/29 10:45:28;;;;;;;19.27;6.53;;;;;;;11.49;56.19;102369.53;4955648;28;20206;-71
2024/01/29 10:48:07;;;;;;;7.67;6.87;;;;;;;11.61;57.08;102367.72;4955877;28;20210;-70
2024/01/29 10:50:34;;;;;;;7.10;6.70;;;;;;;11.79;55.98;102369.03;4955969;28;20179;-70
2024/01/29 10:53:03;;;;;;;8.50;6.03;;;;;;;11.81;55.24;102362.56;4955505;28;20206;-70
2024/01/29 10:55:30;;;;;;;7.20;6.80;;;;;;;11.86;55.28;102368.41;4955560;28;20556;-70
2024/01/29 10:58:01;;;;;;;6.67;6.27;;;;;;;11.95;55.44;102366.84;4955596;28;20210;-71
2024/01/29 11:00:31;;;;;;;6.50;6.10;;;;;;;12.08;56.05;102364.06;4955757;28;20222;-71
2024/01/29 11:02:58;;;;;;;6.57;6.17;;;;;;;12.28;54.95;102361.50;4956056;28;20174;-71
2024/01/29 11:05:26;;;;;;;7.03;6.47;;;;;;;12.38;55.95;102366.13;4955395;28;20241;-71
2024/01/29 11:07:55;;;;;;;7.30;6.80;;;;;;;12.52;55.00;102361.31;4955493;28;20753;-71
2024/01/29 11:10:23;;;;;;;6.10;5.90;;;;;;;12.59;54.98;102361.69;4955672;28;20190;-71
2024/01/29 11:12:56;;;;;;;6.77;6.47;;;;;;;12.81;54.66;102365.16;4955745;29;20190;-71
2024/01/29 11:15:24;;;;;;;6.00;5.70;;;;;;;12.81;54.49;102354.44;4955306;28;20186;-71
2024/01/29 11:17:50;;;;;;;6.43;6.10;;;;;;;12.90;55.70;102355.50;4955189;29;20210;-71
2024/01/29 11:20:20;;;;;;;6.23;5.87;;;;;;;13.10;55.53;102353.88;4955492;29;20193;-71
2024/01/29 11:22:51;;;;;;;13.33;6.90;;;;;;;12.80;55.10;102362.63;4955225;28;20190;-71
2024/01/29 11:25:19;;;;;;;13.13;7.00;;;;;;;12.58;55.74;102355.47;4955055;28;20175;-71
2024/01/29 11:27:47;;;;;;;6.53;6.23;;;;;;;12.26;57.05;102359.91;4955484;28;20214;-70